หน้าหลัก
METAR-TAF:

METAR-TAF

ท่าอากาศยาน :

Thule, กรีนแลนด์

ละติจูด: 76-32N, ลองจิจูด: 068-42W, ความสูง: 77 ม.

การสังเกตสภาพอากาศปัจจุบัน

รายงานได้ทำขึ้นเมื่อ 38 นาทีที่แล้ว ณ เวลา 03:55 UTC
ลม 8 นอตจากตะวันออก/ตะวันออกเฉียงใต้
อุณหภูมิ -22°C
ความชื้น 70%
ความกดอากาศ 995 hPa
ทัศนวิสัย 10 กม. หรือมากกว่า
ท้องฟ้าแจ่มใส

METAR: BGTL 210355Z AUTO 11008KT 9999 CLR M22/M26 A2937 RMK AO2 SLP938 T12201258 411871247 TSNO $

เวลา: 00:33 (04:33 UTC)

การพยากรณ์

รายงานได้ทำขึ้นเมื่อ 8 ชั่วโมงและ 33 นาทีที่แล้ว ณ เวลา 20:00 UTC
การพยากรณ์มีผลตั้งแต่วันที่ 20 ณ เวลา 20 UTC จนถึงวันที่ 22 ณ เวลา 02 UTC
ลม 9 นอตจากตะวันออก/ตะวันออกเฉียงใต้
ทัศนวิสัย: 2112 ม.
ท้องฟ้าแจ่มใส

TAF: BGTL 202000Z 2020/2202 12009KT 9999 SKC QNH2926INS TXM21/2020Z TNM25/2112Z LAST NO AMDS AFT 2020 NEXT 2112

สังเกตการณ์สภาพอากาศและพยากรณ์อากาศของสนามบินมากกว่า 4000 แห่ง (รายงาน METAR และ TAF).

สถานีที่ดูได้จะแสดงไว้ด้วยจุดสีเหลืองและสีแดงบนแผนที่.

เลื่อนเมาส์ไปเหนือจุดเพื่อดูชื่อสถานี.

แล้วคลิกเพื่อดูสังเกตการณ์และการพยากรณ์สภาพอากาศ.

ในการเปลี่ยนแผนที่: คลิกที่ปุ่มสีเขียวที่มีกากบาทสีดำเพื่อซูมเข้า; ที่ปุ่มสีเขียวที่มีขีดเพื่อซูมออก; หรือที่ลูกศรสีเขียวเพื่อไปยังแผนที่ที่อยู่ติดกัน.


METAR-TAF: